Time;durP1;ratioP1;P1;durP2;ratioP2;P2;SDS_P1;SDS_P2;PMS_P1;PMS_P2;Temp;Humidity;BMP_temperature;BMP_pressure;BME280_temperature;BME280_humidity;BME280_pressure;Samples;Min_cycle;Max_cycle;Signal;HPM_P1;HPM_P2
2021/04/04 08:02:55;;;;;;;23.30;10.70;;;6.90;99.90;;;;;;5032972;23;20059;-88
2021/04/04 08:08:48;;;;;;;21.88;9.52;;;7.20;99.90;;;;;;4962232;29;20058;-89
2021/04/04 08:11:20;;;;;;;25.52;9.07;;;7.40;99.90;;;;;;4959453;28;20059;-90
2021/04/04 08:13:51;;;;;;;25.80;10.50;;;7.70;99.90;;;;;;4975511;28;20491;-92
2021/04/04 08:16:21;;;;;;;20.60;9.23;;;7.90;99.90;;;;;;4975478;28;20069;-90
2021/04/04 08:18:49;;;;;;;22.20;9.52;;;8.20;99.90;;;;;;4975499;28;20062;-90
2021/04/04 08:21:19;;;;;;;21.85;8.57;;;8.20;99.90;;;;;;4975244;28;20059;-90
2021/04/04 08:23:48;;;;;;;21.92;9.90;;;8.20;99.90;;;;;;4975817;28;20387;-90
2021/04/04 08:26:16;;;;;;;24.33;9.20;;;8.10;99.90;;;;;;4975495;28;20125;-90
2021/04/04 08:28:43;;;;;;;21.67;8.95;;;8.00;99.90;;;;;;4975647;28;20055;-91
2021/04/04 08:31:13;;;;;;;22.58;9.45;;;7.90;99.90;;;;;;4975824;28;20065;-90
2021/04/04 08:33:44;;;;;;;26.88;10.02;;;7.90;99.90;;;;;;4975549;28;20061;-90
2021/04/04 08:36:13;;;;;;;19.35;8.45;;;8.00;99.90;;;;;;4975323;28;20054;-91
2021/04/04 08:38:40;;;;;;;16.48;9.20;;;8.00;99.90;;;;;;4975243;28;20383;-92
2021/04/04 08:41:07;;;;;;;22.23;10.35;;;8.10;99.90;;;;;;4973239;28;20051;-88
2021/04/04 08:43:34;;;;;;;21.55;8.65;;;8.20;99.90;;;;;;4975113;28;20051;-90
2021/04/04 08:46:02;;;;;;;25.88;9.30;;;8.40;99.90;;;;;;4966257;28;20059;-88
2021/04/04 08:48:29;;;;;;;63.63;13.57;;;8.50;99.90;;;;;;4955916;29;20387;-88
2021/04/04 08:50:57;;;;;;;18.98;8.85;;;8.60;99.90;;;;;;4956160;29;20055;-89
2021/04/04 08:53:26;;;;;;;26.27;10.75;;;8.60;99.90;;;;;;4956014;29;20094;-89
2021/04/04 08:55:53;;;;;;;29.50;11.70;;;8.70;99.90;;;;;;4955846;29;20051;-90
2021/04/04 08:58:21;;;;;;;32.33;12.80;;;8.80;99.90;;;;;;4955783;29;20113;-89
2021/04/04 09:00:48;;;;;;;27.55;11.95;;;8.80;99.90;;;;;;4955694;29;20047;-89
2021/04/04 09:03:18;;;;;;;28.42;11.25;;;8.70;99.90;;;;;;4957839;28;20055;-90
2021/04/04 09:05:45;;;;;;;29.90;12.88;;;8.60;99.90;;;;;;4959428;28;20096;-89
2021/04/04 09:08:13;;;;;;;21.63;10.70;;;8.60;99.90;;;;;;4959106;29;20427;-89
2021/04/04 09:10:41;;;;;;;26.38;11.10;;;8.50;99.90;;;;;;4959069;29;20464;-89
2021/04/04 09:13:08;;;;;;;27.13;11.93;;;8.50;99.90;;;;;;4977027;28;20059;-88
2021/04/04 09:15:39;;;;;;;28.45;12.10;;;8.50;99.90;;;;;;4978111;28;20059;-89
2021/04/04 09:18:08;;;;;;;32.08;11.80;;;8.50;99.90;;;;;;4978135;28;20109;-89
2021/04/04 09:20:36;;;;;;;26.50;11.25;;;8.50;99.90;;;;;;4978031;28;20051;-89
2021/04/04 09:23:03;;;;;;;24.02;10.57;;;8.50;99.90;;;;;;4978200;28;20051;-89
2021/04/04 09:25:30;;;;;;;27.50;10.52;;;8.50;99.90;;;;;;4978186;28;20117;-89
2021/04/04 09:27:59;;;;;;;24.90;9.85;;;8.50;99.90;;;;;;4978215;28;20047;-89
2021/04/04 09:30:34;;;;;;;19.52;8.40;;;8.60;99.90;;;;;;4977764;28;20046;-89
2021/04/04 09:33:01;;;;;;;24.52;8.82;;;8.80;99.90;;;;;;4978250;28;20055;-88
2021/04/04 09:35:28;;;;;;;16.92;7.72;;;8.90;99.90;;;;;;4977908;28;20113;-88
2021/04/04 09:38:00;;;;;;;22.70;8.82;;;9.00;99.90;;;;;;4977824;28;20121;-88
2021/04/04 09:40:27;;;;;;;24.65;9.27;;;9.10;99.90;;;;;;4977567;28;20046;-88
2021/04/04 09:42:55;;;;;;;19.10;9.07;;;9.30;99.90;;;;;;4977487;28;20200;-88
2021/04/04 09:45:23;;;;;;;23.15;8.95;;;9.40;99.90;;;;;;4977509;28;20077;-88
2021/04/04 09:47:50;;;;;;;20.00;8.57;;;9.50;99.90;;;;;;4977755;28;20050;-88
2021/04/04 09:50:18;;;;;;;17.85;7.68;;;9.60;99.90;;;;;;4977282;28;20043;-88
2021/04/04 09:52:45;;;;;;;16.85;7.00;;;9.60;99.90;;;;;;4977398;28;20147;-88
2021/04/04 09:55:14;;;;;;;18.70;7.18;;;9.70;99.90;;;;;;4977363;28;20061;-88
2021/04/04 09:57:41;;;;;;;19.52;7.63;;;9.70;99.90;;;;;;4977704;28;20214;-88
2021/04/04 10:00:24;;;;;;;15.38;7.55;;;9.70;99.90;;;;;;4976916;28;20046;-87
2021/04/04 10:02:51;;;;;;;15.98;6.90;;;9.80;99.90;;;;;;4977248;28;20069;-88
2021/04/04 10:05:31;;;;;;;18.23;8.18;;;9.90;99.90;;;;;;4977109;28;20086;-87
2021/04/04 10:08:17;;;;;;;15.07;7.68;;;9.90;99.90;;;;;;4977037;28;20065;-88
2021/04/04 10:10:45;;;;;;;19.20;8.45;;;9.90;99.90;;;;;;4958484;28;20058;-88
2021/04/04 10:13:12;;;;;;;14.38;6.50;;;10.00;99.90;;;;;;4975994;28;20410;-87
2021/04/04 10:15:40;;;;;;;26.08;8.40;;;10.00;99.90;;;;;;4976264;28;20047;-87
2021/04/04 10:18:07;;;;;;;25.08;8.80;;;10.10;99.90;;;;;;4976785;28;20051;-88
2021/04/04 10:20:35;;;;;;;13.48;7.95;;;10.20;99.90;;;;;;4976798;28;20046;-87
2021/04/04 10:23:02;;;;;;;20.70;9.00;;;10.20;99.90;;;;;;4977137;28;20169;-87
2021/04/04 10:25:29;;;;;;;18.77;8.65;;;10.30;99.90;;;;;;4976658;28;20384;-86
2021/04/04 10:28:00;;;;;;;21.30;9.85;;;10.50;99.90;;;;;;4977183;28;20058;-86
2021/04/04 10:30:30;;;;;;;22.48;9.45;;;10.60;99.90;;;;;;4976696;28;20530;-86
2021/04/04 10:33:17;;;;;;;21.15;8.85;;;10.70;99.90;;;;;;4976872;28;20077;-86
2021/04/04 10:35:44;;;;;;;17.90;8.02;;;10.70;99.90;;;;;;4976476;28;20058;-85
2021/04/04 10:38:11;;;;;;;21.30;8.10;;;10.70;99.90;;;;;;4976732;28;20050;-86
2021/04/04 10:40:51;;;;;;;18.40;8.15;;;10.70;99.90;;;;;;4976535;28;20046;-87
2021/04/04 10:43:18;;;;;;;16.10;6.45;;;10.80;99.90;;;;;;4976391;28;20054;-85
2021/04/04 10:45:58;;;;;;;15.25;7.82;;;10.80;99.90;;;;;;4965986;28;20548;-86
2021/04/04 10:48:26;;;;;;;19.75;7.28;;;10.80;99.90;;;;;;4956991;29;20074;-86
2021/04/04 10:50:53;;;;;;;17.70;7.68;;;10.80;99.90;;;;;;4957077;29;20473;-87
2021/04/04 10:53:20;;;;;;;21.00;7.63;;;10.80;99.90;;;;;;4956765;29;20061;-86
2021/04/04 10:55:46;;;;;;;16.10;6.78;;;10.80;99.90;;;;;;4956996;29;20467;-85
2021/04/04 10:58:14;;;;;;;18.20;8.73;;;11.00;99.90;;;;;;4956869;29;20047;-85
2021/04/04 11:00:42;;;;;;;20.80;8.35;;;11.00;99.90;;;;;;4956697;29;20130;-85
2021/04/04 11:03:08;;;;;;;20.58;7.85;;;11.10;99.90;;;;;;4956996;29;20063;-85
2021/04/04 11:05:36;;;;;;;21.27;8.00;;;11.10;99.90;;;;;;4956820;29;20084;-85
2021/04/04 11:08:03;;;;;;;16.30;7.43;;;11.10;99.90;;;;;;4956848;29;20066;-85
2021/04/04 11:10:29;;;;;;;24.88;8.57;;;11.20;99.90;;;;;;4956655;29;20055;-85
2021/04/04 11:12:56;;;;;;;17.80;7.28;;;11.30;99.90;;;;;;4973309;28;20116;-85
2021/04/04 11:15:23;;;;;;;24.23;9.25;;;11.30;99.90;;;;;;4975620;28;20057;-86
2021/04/04 11:17:49;;;;;;;16.73;7.32;;;11.30;99.90;;;;;;4975964;28;20133;-85
2021/04/04 11:20:17;;;;;;;19.50;9.00;;;11.30;99.90;;;;;;4975705;28;20051;-85
2021/04/04 11:22:44;;;;;;;19.77;7.63;;;11.30;99.90;;;;;;4975644;28;20058;-86
2021/04/04 11:25:14;;;;;;;20.38;7.90;;;11.20;99.90;;;;;;4975506;28;20061;-85
2021/04/04 11:27:42;;;;;;;21.60;8.35;;;11.20;99.90;;;;;;4975903;28;20062;-86
2021/04/04 11:30:14;;;;;;;22.63;8.10;;;11.30;99.90;;;;;;4975676;28;20042;-86
2021/04/04 11:32:44;;;;;;;20.30;8.52;;;11.30;99.90;;;;;;4975906;28;20112;-87
2021/04/04 11:35:12;;;;;;;18.63;8.80;;;11.20;99.90;;;;;;4975703;28;20051;-86
2021/04/04 11:37:42;;;;;;;19.00;8.27;;;11.10;99.90;;;;;;4975449;28;20054;-87
2021/04/04 11:40:18;;;;;;;27.48;9.05;;;11.00;99.90;;;;;;4975369;28;20051;-87
2021/04/04 11:42:45;;;;;;;22.10;8.27;;;10.90;99.90;;;;;;4975258;28;20468;-86
2021/04/04 11:45:12;;;;;;;16.17;7.85;;;10.80;99.90;;;;;;4975046;28;20057;-86
2021/04/04 11:47:39;;;;;;;20.33;7.70;;;10.70;99.90;;;;;;4975395;28;20050;-86
2021/04/04 11:50:24;;;;;;;17.95;8.52;;;10.60;99.90;;;;;;4975335;28;20061;-86
2021/04/04 11:52:50;;;;;;;20.07;8.23;;;10.60;99.90;;;;;;4975583;28;20129;-87
2021/04/04 11:55:19;;;;;;;17.77;8.13;;;10.70;99.90;;;;;;4975288;28;20051;-87
2021/04/04 11:57:46;;;;;;;25.05;9.18;;;10.70;99.90;;;;;;4975336;28;20069;-88
2021/04/04 12:00:24;;;;;;;15.80;7.85;;;10.60;99.90;;;;;;4975285;28;20066;-87
2021/04/04 12:03:00;;;;;;;22.90;7.63;;;10.60;99.90;;;;;;4975088;28;20090;-87
2021/04/04 12:05:28;;;;;;;17.80;7.15;;;10.50;99.90;;;;;;4975234;28;20544;-87
2021/04/04 12:07:55;;;;;;;20.00;7.22;;;10.50;99.90;;;;;;4975027;28;20456;-89
2021/04/04 12:10:26;;;;;;;20.83;8.32;;;10.50;99.90;;;;;;4975058;28;20050;-88
2021/04/04 12:12:53;;;;;;;16.25;8.38;;;10.60;99.90;;;;;;4975304;28;20055;-87
2021/04/04 12:15:20;;;;;;;19.38;7.60;;;10.70;99.90;;;;;;4974714;28;20051;-87
2021/04/04 12:17:47;;;;;;;18.95;7.47;;;10.80;99.90;;;;;;4975481;28;20046;-88
2021/04/04 12:20:14;;;;;;;15.52;7.47;;;10.90;99.90;;;;;;4974939;28;20145;-87
2021/04/04 12:22:41;;;;;;;27.42;8.52;;;10.90;99.90;;;;;;4975054;28;20761;-87
2021/04/04 12:25:09;;;;;;;21.02;7.18;;;10.90;99.90;;;;;;4975131;28;20050;-87
2021/04/04 12:27:38;;;;;;;21.65;7.60;;;10.90;99.90;;;;;;4975106;28;20112;-85
2021/04/04 12:30:05;;;;;;;17.63;7.13;;;11.00;99.90;;;;;;4979057;28;20053;-89
2021/04/04 12:32:33;;;;;;;23.15;7.20;;;11.10;99.90;;;;;;4982959;28;20055;-89
2021/04/04 12:35:01;;;;;;;19.55;7.22;;;11.30;99.90;;;;;;4980210;28;20130;-87
2021/04/04 12:37:29;;;;;;;18.45;6.93;;;11.50;99.90;;;;;;4977994;28;20075;-89
2021/04/04 12:39:57;;;;;;;19.73;8.10;;;11.70;99.90;;;;;;4978662;28;20203;-86
2021/04/04 12:42:25;;;;;;;21.13;7.70;;;11.70;99.90;;;;;;4977207;28;20108;-86
2021/04/04 12:44:53;;;;;;;15.93;7.40;;;11.70;99.90;;;;;;4978387;28;20043;-87
2021/04/04 12:47:21;;;;;;;18.38;6.97;;;11.70;99.90;;;;;;4962218;28;20061;-84
2021/04/04 12:49:53;;;;;;;18.73;6.88;;;11.60;99.90;;;;;;4959591;29;20063;-86
2021/04/04 12:52:33;;;;;;;22.38;7.57;;;11.70;99.90;;;;;;4959244;29;20051;-86
2021/04/04 12:55:15;;;;;;;19.48;7.80;;;11.90;99.90;;;;;;4959159;29;20079;-86
2021/04/04 12:57:42;;;;;;;22.77;7.30;;;12.00;99.90;;;;;;4959358;29;20146;-86
2021/04/04 13:00:18;;;;;;;27.33;8.68;;;12.10;99.90;;;;;;4958897;29;20043;-86
2021/04/04 13:02:58;;;;;;;18.92;7.15;;;12.20;99.90;;;;;;4959000;29;20555;-86
2021/04/04 13:05:25;;;;;;;16.10;7.45;;;12.20;99.90;;;;;;4958818;29;20105;-84
2021/04/04 13:07:52;;;;;;;22.33;8.82;;;12.10;99.90;;;;;;4958848;29;20055;-86
2021/04/04 13:10:19;;;;;;;17.58;7.50;;;12.10;99.90;;;;;;4958813;29;20051;-85
2021/04/04 13:12:45;;;;;;;15.25;8.70;;;12.00;99.90;;;;;;4958742;29;20139;-86
2021/04/04 13:15:22;;;;;;;19.83;8.57;;;11.90;99.90;;;;;;4966348;28;20444;-87
2021/04/04 13:17:49;;;;;;;27.60;8.85;;;11.70;99.90;;;;;;4978008;28;20475;-87
2021/04/04 13:20:16;;;;;;;15.68;7.97;;;11.70;99.90;;;;;;4977682;28;20090;-85
2021/04/04 13:22:43;;;;;;;19.42;7.80;;;11.60;99.90;;;;;;4977957;28;20061;-86
2021/04/04 13:25:11;;;;;;;15.65;7.82;;;11.50;99.90;;;;;;4977721;28;20053;-88
2021/04/04 13:27:37;;;;;;;19.35;7.90;;;11.50;99.90;;;;;;4978077;28;20053;-83
2021/04/04 13:30:05;;;;;;;18.85;8.10;;;11.40;99.90;;;;;;4981017;28;20054;-88
2021/04/04 13:32:44;;;;;;;19.02;8.10;;;11.50;99.90;;;;;;4977936;28;20051;-89
2021/04/04 13:35:11;;;;;;;17.67;7.60;;;11.50;99.90;;;;;;4977624;28;20472;-87
2021/04/04 13:37:43;;;;;;;22.00;8.60;;;11.50;99.90;;;;;;4977586;28;20064;-91
2021/04/04 13:40:11;;;;;;;26.50;7.63;;;11.40;99.90;;;;;;4977720;28;20113;-92
2021/04/04 13:42:48;;;;;;;17.42;7.10;;;11.40;99.90;;;;;;4977462;28;20094;-94
2021/04/04 13:45:33;;;;;;;14.13;6.63;;;11.30;99.90;;;;;;4977426;28;20054;-87
2021/04/04 13:48:00;;;;;;;22.52;7.45;;;11.30;99.90;;;;;;4977664;28;20058;-90
2021/04/04 13:50:37;;;;;;;19.85;7.50;;;11.30;99.90;;;;;;4976819;28;20056;-91
2021/04/04 13:53:32;;;;;;;19.33;7.43;;;11.30;99.90;;;;;;4977410;28;20051;-89
2021/04/04 13:56:10;;;;;;;17.27;6.20;;;11.40;99.90;;;;;;4977632;28;20431;-88
2021/04/04 13:58:37;;;;;;;14.95;7.00;;;11.40;99.90;;;;;;4977276;28;20059;-85
2021/04/04 14:01:06;;;;;;;21.58;7.47;;;11.50;99.90;;;;;;4977033;28;20059;-84
2021/04/04 14:03:35;;;;;;;16.30;6.95;;;11.60;99.90;;;;;;4977372;28;20050;-84
2021/04/04 14:06:09;;;;;;;17.20;7.82;;;11.80;99.90;;;;;;4977154;28;20047;-84
2021/04/04 14:08:36;;;;;;;15.67;6.50;;;12.00;99.90;;;;;;4977032;28;20061;-84
2021/04/04 14:11:03;;;;;;;21.98;8.32;;;12.10;99.90;;;;;;4977065;28;20299;-81
2021/04/04 14:13:30;;;;;;;29.08;8.43;;;12.20;99.90;;;;;;4977207;28;20058;-81
2021/04/04 14:15:56;;;;;;;25.60;8.05;;;12.30;99.90;;;;;;4976672;28;20061;-82
2021/04/04 14:18:30;;;;;;;19.38;7.18;;;12.40;99.90;;;;;;4977087;28;20061;-80
2021/04/04 14:20:57;;;;;;;14.43;6.82;;;12.50;99.90;;;;;;4976892;28;20500;-85
2021/04/04 14:23:24;;;;;;;20.98;7.35;;;12.50;99.90;;;;;;4976895;28;20153;-84
2021/04/04 14:25:51;;;;;;;17.30;7.90;;;12.60;99.90;;;;;;4976524;28;20055;-85
2021/04/04 14:28:17;;;;;;;16.80;7.15;;;12.60;99.90;;;;;;4976860;28;20050;-82
2021/04/04 14:30:44;;;;;;;23.75;8.65;;;12.60;99.90;;;;;;4968783;28;20047;-82
2021/04/04 14:33:10;;;;;;;88.88;33.22;;;12.60;99.90;;;;;;4957473;29;20105;-79
2021/04/04 14:35:37;;;;;;;21.02;8.38;;;12.50;99.90;;;;;;4957550;29;20061;-80
2021/04/04 14:38:08;;;;;;;17.92;7.78;;;12.30;99.90;;;;;;4957255;29;20113;-87
2021/04/04 14:40:34;;;;;;;20.42;8.77;;;12.20;99.90;;;;;;4957290;29;20043;-89
2021/04/04 14:43:10;;;;;;;17.63;7.78;;;12.10;99.90;;;;;;4974184;28;20057;-87
2021/04/04 14:45:37;;;;;;;16.38;7.65;;;11.90;99.90;;;;;;4976323;28;20058;-87
2021/04/04 14:48:04;;;;;;;19.70;7.07;;;11.90;99.90;;;;;;4975795;28;20510;-88
2021/04/04 14:50:30;;;;;;;23.73;7.57;;;11.80;99.90;;;;;;4975766;28;20051;-88
2021/04/04 14:53:11;;;;;;;16.63;6.50;;;11.80;99.90;;;;;;4976312;28;20051;-89
2021/04/04 14:55:42;;;;;;;15.23;6.03;;;11.80;99.90;;;;;;4976371;28;20344;-88
2021/04/04 14:58:09;;;;;;;18.65;7.30;;;11.80;99.90;;;;;;4963627;28;20109;-87
2021/04/04 15:00:35;;;;;;;16.45;6.30;;;11.80;99.90;;;;;;4956485;28;20113;-84
2021/04/04 15:03:02;;;;;;;18.38;7.25;;;11.80;99.90;;;;;;4956751;29;20086;-85
2021/04/04 15:05:29;;;;;;;17.30;7.13;;;11.90;99.90;;;;;;4956670;28;20058;-78
2021/04/04 15:07:55;;;;;;;23.38;7.05;;;11.90;99.90;;;;;;4956736;29;20392;-91
2021/04/04 15:10:22;;;;;;;14.85;7.05;;;11.90;99.90;;;;;;4956993;29;20051;-81
2021/04/04 15:12:49;;;;;;;15.63;7.28;;;11.90;99.90;;;;;;4965957;28;20113;-80
2021/04/04 15:15:16;;;;;;;14.63;5.97;;;11.90;99.90;;;;;;4967315;28;20379;-82
2021/04/04 15:17:43;;;;;;;15.65;6.40;;;12.00;99.90;;;;;;4956813;29;20449;-79
2021/04/04 15:20:10;;;;;;;16.10;7.32;;;11.90;99.90;;;;;;4956609;29;20058;-79
2021/04/04 15:22:40;;;;;;;17.23;7.53;;;12.00;99.90;;;;;;4956664;29;20051;-81
2021/04/04 15:25:08;;;;;;;15.82;6.60;;;12.00;99.90;;;;;;4956787;29;20055;-82
2021/04/04 15:27:34;;;;;;;15.43;6.15;;;12.00;99.90;;;;;;4956533;29;20053;-80
2021/04/04 15:30:02;;;;;;;11.88;6.65;;;11.90;99.90;;;;;;4956448;29;20062;-80
2021/04/04 15:32:28;;;;;;;18.80;6.55;;;11.90;99.90;;;;;;4956314;29;20055;-83
2021/04/04 15:34:55;;;;;;;14.10;6.18;;;11.90;99.90;;;;;;4956424;29;20065;-79
2021/04/04 15:37:21;;;;;;;17.13;6.22;;;11.80;99.90;;;;;;4956144;29;20051;-82
2021/04/04 15:39:48;;;;;;;16.55;6.25;;;11.90;99.90;;;;;;4956506;29;20051;-79
2021/04/04 15:42:15;;;;;;;14.50;6.32;;;11.80;99.90;;;;;;4965691;28;20057;-82
2021/04/04 15:44:41;;;;;;;13.07;6.55;;;11.80;99.90;;;;;;4973599;28;20480;-82
2021/04/04 15:47:09;;;;;;;13.65;5.70;;;11.80;99.90;;;;;;4956283;29;20113;-83
2021/04/04 15:49:35;;;;;;;20.50;5.90;;;11.80;99.90;;;;;;4955975;29;20219;-80
2021/04/04 15:52:02;;;;;;;17.35;6.35;;;11.80;99.90;;;;;;4956227;29;20047;-81
2021/04/04 15:54:29;;;;;;;20.95;7.05;;;11.70;99.90;;;;;;4955895;29;20055;-76
2021/04/04 15:56:55;;;;;;;18.95;5.90;;;11.60;99.90;;;;;;4955789;29;20051;-78
2021/04/04 15:59:22;;;;;;;15.05;5.80;;;11.50;99.90;;;;;;4956049;29;20081;-84
2021/04/04 16:01:48;;;;;;;17.65;6.22;;;11.40;99.90;;;;;;4956030;29;20067;-84
2021/04/04 16:04:16;;;;;;;21.83;7.63;;;11.40;99.90;;;;;;4955961;29;20477;-79
2021/04/04 16:06:42;;;;;;;16.73;6.55;;;11.40;99.90;;;;;;4955987;29;20381;-80
2021/04/04 16:09:09;;;;;;;19.58;8.25;;;11.50;99.90;;;;;;4955717;29;20055;-80
2021/04/04 16:11:39;;;;;;;14.90;8.25;;;11.50;99.90;;;;;;4961212;28;20439;-80
2021/04/04 16:14:05;;;;;;;24.20;8.93;;;11.40;99.90;;;;;;4979050;28;20060;-77
2021/04/04 16:16:32;;;;;;;17.13;8.15;;;11.40;99.90;;;;;;4979021;28;20046;-78
2021/04/04 16:18:59;;;;;;;23.75;11.52;;;11.30;99.90;;;;;;4979106;28;20058;-78
2021/04/04 16:21:27;;;;;;;23.02;10.70;;;11.20;99.90;;;;;;4971513;28;20074;-79
2021/04/04 16:23:53;;;;;;;22.10;10.20;;;11.20;99.90;;;;;;4959513;29;20051;-78
2021/04/04 16:26:20;;;;;;;25.27;9.75;;;11.10;99.90;;;;;;4959514;29;20059;-78
2021/04/04 16:28:46;;;;;;;25.17;11.18;;;11.00;99.90;;;;;;4959531;29;20051;-79
2021/04/04 16:31:13;;;;;;;23.25;10.05;;;11.00;99.90;;;;;;4959399;29;20043;-78
2021/04/04 16:33:40;;;;;;;21.50;10.00;;;11.00;99.90;;;;;;4959234;29;20061;-78
2021/04/04 16:36:07;;;;;;;24.63;10.48;;;10.90;99.90;;;;;;4950863;29;20074;-78
2021/04/04 16:38:35;;;;;;;20.20;10.18;;;10.80;99.90;;;;;;4948736;29;20078;-79
2021/04/04 16:41:01;;;;;;;28.02;11.30;;;10.80;99.90;;;;;;4946249;29;20058;-79
2021/04/04 16:43:28;;;;;;;22.02;10.10;;;10.70;99.90;;;;;;4949270;28;20183;-78
2021/04/04 16:45:55;;;;;;;25.38;10.25;;;10.70;99.90;;;;;;4950300;29;20109;-78
2021/04/04 16:48:23;;;;;;;29.98;12.68;;;10.60;99.90;;;;;;4958998;29;20480;-78
2021/04/04 16:50:50;;;;;;;22.60;10.05;;;10.50;99.90;;;;;;4959534;29;20106;-77
2021/04/04 16:53:16;;;;;;;27.73;12.00;;;10.50;99.90;;;;;;4958995;29;20058;-79
2021/04/04 16:55:44;;;;;;;21.17;9.50;;;10.40;99.90;;;;;;4959277;28;20400;-78
2021/04/04 16:58:10;;;;;;;28.67;12.40;;;10.30;99.90;;;;;;4959317;29;20051;-78
2021/04/04 17:00:37;;;;;;;27.02;11.52;;;10.20;99.90;;;;;;4955837;29;20468;-77
2021/04/04 17:03:04;;;;;;;29.23;11.57;;;10.10;99.90;;;;;;4940335;29;20055;-79
2021/04/04 17:05:30;;;;;;;25.13;11.43;;;10.10;99.90;;;;;;4940001;29;20066;-78
2021/04/04 17:07:57;;;;;;;28.55;10.35;;;10.10;99.90;;;;;;4939833;29;20362;-78
2021/04/04 17:10:24;;;;;;;23.25;10.90;;;10.10;99.90;;;;;;4939864;29;20043;-78
2021/04/04 17:12:51;;;;;;;22.45;10.98;;;10.00;99.90;;;;;;4955242;29;20055;-78
2021/04/04 17:15:19;;;;;;;18.63;10.20;;;10.00;99.90;;;;;;4958296;29;20055;-79
2021/04/04 17:17:45;;;;;;;17.17;9.38;;;10.10;99.90;;;;;;4945758;29;20055;-78
2021/04/04 17:20:14;;;;;;;20.60;10.13;;;10.00;99.90;;;;;;4939416;29;20130;-77
2021/04/04 17:22:41;;;;;;;23.70;9.93;;;10.00;99.90;;;;;;4939254;29;20492;-79
2021/04/04 17:25:08;;;;;;;20.25;9.00;;;10.00;99.90;;;;;;4939398;29;20398;-78
2021/04/04 17:27:35;;;;;;;21.13;10.02;;;9.90;99.90;;;;;;4939552;29;20055;-79
2021/04/04 17:30:04;;;;;;;21.58;10.02;;;9.90;99.90;;;;;;4939483;29;20050;-78
2021/04/04 17:32:31;;;;;;;22.17;10.05;;;9.90;99.90;;;;;;4939326;29;20070;-78
2021/04/04 17:34:57;;;;;;;22.90;9.90;;;9.90;99.90;;;;;;4939248;29;20069;-78
2021/04/04 17:37:24;;;;;;;23.65;9.77;;;9.80;99.90;;;;;;4955619;29;20055;-77
2021/04/04 17:39:50;;;;;;;16.73;9.35;;;9.80;99.90;;;;;;4958492;29;20060;-77
2021/04/04 17:42:17;;;;;;;22.35;10.18;;;9.70;99.90;;;;;;4946644;29;20055;-80
2021/04/04 17:44:44;;;;;;;21.30;10.18;;;9.70;99.90;;;;;;4942948;29;20573;-78
2021/04/04 17:47:11;;;;;;;15.88;9.05;;;9.70;99.90;;;;;;4958037;29;20503;-80
2021/04/04 17:49:38;;;;;;;20.38;9.13;;;9.70;99.90;;;;;;4957985;29;20142;-78
2021/04/04 17:52:05;;;;;;;18.98;8.60;;;9.70;99.90;;;;;;4958092;29;20051;-79
2021/04/04 17:54:32;;;;;;;22.80;10.02;;;9.70;99.90;;;;;;4957637;29;20526;-78
2021/04/04 17:56:58;;;;;;;24.50;7.93;;;9.70;99.90;;;;;;4958022;29;20055;-80
2021/04/04 17:59:25;;;;;;;16.35;7.53;;;9.60;99.90;;;;;;4958062;28;20058;-78
2021/04/04 18:01:51;;;;;;;17.58;8.15;;;9.60;99.90;;;;;;4957699;29;20062;-78
2021/04/04 18:04:21;;;;;;;24.25;9.90;;;8.20;99.90;;;;;;4957975;28;20051;-78
2021/04/04 18:06:54;;;;;;;17.45;7.80;;;9.60;99.90;;;;;;4957495;29;20051;-77
2021/04/04 18:12:16;;;;;;;;;;;9.50;99.90;;;;;;4957984;29;20371;-79
2021/04/04 18:14:43;;;;;;;17.15;7.45;;;9.40;99.90;;;;;;4957423;29;20318;-78
2021/04/04 18:17:10;;;;;;;16.38;8.52;;;9.40;99.90;;;;;;4957631;29;20069;-78
2021/04/04 18:19:38;;;;;;;17.02;7.32;;;9.40;99.90;;;;;;4957222;29;20050;-79
2021/04/04 18:22:05;;;;;;;13.63;7.55;;;9.40;99.90;;;;;;4957309;29;20061;-78
2021/04/04 18:24:32;;;;;;;19.38;8.60;;;9.40;99.90;;;;;;4957084;29;20062;-79
2021/04/04 18:26:58;;;;;;;26.75;9.20;;;9.40;99.90;;;;;;4957221;29;20094;-78
2021/04/04 18:29:25;;;;;;;14.75;7.35;;;9.40;99.90;;;;;;4957234;29;20476;-77
2021/04/04 18:31:51;;;;;;;19.85;8.27;;;9.40;99.90;;;;;;4957817;29;20051;-78
2021/04/04 18:34:18;;;;;;;17.45;6.97;;;9.40;99.90;;;;;;4956736;28;20555;-78
2021/04/04 18:36:46;;;;;;;14.15;7.55;;;9.30;99.90;;;;;;4956732;29;20055;-77
2021/04/04 18:39:13;;;;;;;16.27;8.10;;;9.30;99.90;;;;;;4956630;29;20469;-78
2021/04/04 18:41:40;;;;;;;16.08;7.65;;;9.30;99.90;;;;;;4954941;29;20070;-79
2021/04/04 18:44:07;;;;;;;16.13;7.72;;;9.30;99.90;;;;;;4957099;29;20055;-78
2021/04/04 18:46:33;;;;;;;20.00;9.68;;;9.30;99.90;;;;;;4956652;29;20059;-78
2021/04/04 18:49:00;;;;;;;20.60;10.02;;;9.30;99.90;;;;;;4956876;28;20519;-82
2021/04/04 18:51:27;;;;;;;18.45;9.45;;;9.30;99.90;;;;;;4958168;29;20465;-77
2021/04/04 18:53:55;;;;;;;18.42;8.75;;;9.30;99.90;;;;;;4961411;29;20057;-85
2021/04/04 18:56:21;;;;;;;18.02;8.38;;;9.30;99.90;;;;;;4959383;29;20101;-77
2021/04/04 18:58:48;;;;;;;16.38;8.15;;;9.30;99.90;;;;;;4957187;29;20055;-78
2021/04/04 19:01:14;;;;;;;23.30;10.13;;;9.30;99.90;;;;;;4956743;29;20059;-77
2021/04/04 19:03:41;;;;;;;23.45;9.93;;;9.30;99.90;;;;;;4957144;29;20070;-77
2021/04/04 19:06:07;;;;;;;26.52;10.95;;;9.30;99.90;;;;;;4956673;29;20093;-78
2021/04/04 19:08:36;;;;;;;18.58;9.45;;;9.30;99.90;;;;;;4956997;29;20055;-77
2021/04/04 19:11:07;;;;;;;17.58;8.65;;;9.30;99.90;;;;;;4956254;29;20047;-76
2021/04/04 19:13:34;;;;;;;21.38;9.10;;;9.30;99.90;;;;;;4956621;29;20055;-79
2021/04/04 19:16:00;;;;;;;19.23;10.13;;;9.30;99.90;;;;;;4956719;29;20061;-78
2021/04/04 19:18:27;;;;;;;17.63;9.23;;;9.30;99.90;;;;;;4956329;29;20380;-88
2021/04/04 19:20:54;;;;;;;23.45;9.93;;;9.30;99.90;;;;;;4956564;29;20058;-84
2021/04/04 19:23:20;;;;;;;19.58;9.88;;;9.30;99.90;;;;;;4956401;29;20086;-79
2021/04/04 19:25:47;;;;;;;21.60;10.40;;;9.30;99.90;;;;;;4956548;28;20105;-78
2021/04/04 19:28:15;;;;;;;23.75;11.43;;;9.30;99.90;;;;;;4956269;29;20144;-81
2021/04/04 19:30:41;;;;;;;25.80;11.45;;;9.30;99.90;;;;;;4956384;29;20375;-78
2021/04/04 19:33:08;;;;;;;22.52;10.63;;;9.30;99.90;;;;;;4956483;29;20051;-78
2021/04/04 19:35:34;;;;;;;25.77;10.63;;;9.30;99.90;;;;;;4956681;29;20390;-76
2021/04/04 19:38:01;;;;;;;28.02;11.35;;;9.30;99.90;;;;;;4956341;28;20109;-88
2021/04/04 19:40:28;;;;;;;28.60;11.07;;;9.30;99.90;;;;;;4941232;29;20047;-89
2021/04/04 19:42:54;;;;;;;23.92;10.98;;;9.30;99.90;;;;;;4953275;29;20047;-88
2021/04/04 19:45:22;;;;;;;25.58;11.10;;;9.30;99.90;;;;;;4955858;28;20059;-87
2021/04/04 19:47:48;;;;;;;25.27;11.10;;;9.30;99.90;;;;;;4942081;28;20055;-86
2021/04/04 19:50:16;;;;;;;22.65;11.27;;;9.30;99.90;;;;;;4937156;29;20143;-87
2021/04/04 19:52:42;;;;;;;24.55;11.05;;;9.20;99.90;;;;;;4936927;29;20051;-86
2021/04/04 19:55:10;;;;;;;23.38;11.63;;;9.30;99.90;;;;;;4936743;29;20052;-88
2021/04/04 19:57:37;;;;;;;29.65;11.10;;;9.30;99.90;;;;;;4937033;29;20055;-87
2021/04/04 20:00:05;;;;;;;21.23;11.05;;;9.20;99.90;;;;;;4936786;29;20121;-87
2021/04/04 20:02:33;;;;;;;23.80;10.52;;;9.20;99.90;;;;;;4936675;29;20075;-88
2021/04/04 20:04:59;;;;;;;23.70;10.27;;;9.20;99.90;;;;;;4936841;29;20465;-87
2021/04/04 20:07:26;;;;;;;22.25;9.30;;;9.20;99.90;;;;;;4936643;29;20051;-90
2021/04/04 20:09:52;;;;;;;28.70;11.20;;;9.30;99.90;;;;;;4936892;29;20421;-87
2021/04/04 20:12:19;;;;;;;22.77;9.57;;;9.30;99.90;;;;;;4948057;29;20051;-84
2021/04/04 20:14:46;;;;;;;18.30;10.10;;;9.30;99.90;;;;;;4955655;29;20127;-81
2021/04/04 20:17:12;;;;;;;30.83;10.85;;;9.30;99.90;;;;;;4950434;29;20077;-80
2021/04/04 20:19:40;;;;;;;20.23;8.85;;;9.30;99.90;;;;;;4950605;29;20055;-82
2021/04/04 20:22:06;;;;;;;17.05;8.13;;;9.30;99.90;;;;;;4955761;29;20464;-79
2021/04/04 20:24:33;;;;;;;19.45;8.60;;;9.30;99.90;;;;;;4955967;28;20059;-79
2021/04/04 20:26:59;;;;;;;17.20;8.02;;;9.30;99.90;;;;;;4955858;29;20105;-79
2021/04/04 20:29:26;;;;;;;18.20;8.15;;;9.40;99.90;;;;;;4955855;28;20165;-80
2021/04/04 20:31:52;;;;;;;20.38;7.45;;;9.40;99.90;;;;;;4956225;29;20054;-80
2021/04/04 20:34:21;;;;;;;17.23;7.32;;;9.40;99.90;;;;;;4955619;29;20055;-80
2021/04/04 20:36:49;;;;;;;12.88;6.97;;;9.30;99.90;;;;;;4955131;29;20079;-80
2021/04/04 20:39:16;;;;;;;15.07;6.57;;;9.40;99.90;;;;;;4955773;29;20128;-79
2021/04/04 20:41:42;;;;;;;18.13;8.15;;;9.40;99.90;;;;;;4948405;29;20460;-79
2021/04/04 20:44:10;;;;;;;14.23;6.65;;;9.30;99.90;;;;;;4936461;29;20051;-79
2021/04/04 20:46:36;;;;;;;17.17;6.68;;;9.40;99.90;;;;;;4938357;29;20469;-79
2021/04/04 20:49:03;;;;;;;16.50;6.95;;;9.40;99.90;;;;;;4936751;29;20055;-80
2021/04/04 20:51:30;;;;;;;13.50;6.03;;;9.40;99.90;;;;;;4936593;29;20055;-80